sensor_id;sensor_type;location;lat;lon;timestamp;temperature;humidity
4757;DHT22;2392;52.578;13.426;2023-08-21T00:00:55;22.40;99.90
4757;DHT22;2392;52.578;13.426;2023-08-21T00:03:22;22.40;99.90
4757;DHT22;2392;52.578;13.426;2023-08-21T00:05:49;22.30;99.90
4757;DHT22;2392;52.578;13.426;2023-08-21T00:08:16;22.30;99.90
4757;DHT22;2392;52.578;13.426;2023-08-21T00:10:43;22.30;99.90
4757;DHT22;2392;52.578;13.426;2023-08-21T00:13:11;22.30;99.90
4757;DHT22;2392;52.578;13.426;2023-08-21T00:15:38;22.30;99.90
4757;DHT22;2392;52.578;13.426;2023-08-21T00:18:06;22.30;99.90
4757;DHT22;2392;52.578;13.426;2023-08-21T00:20:33;22.30;99.90
4757;DHT22;2392;52.578;13.426;2023-08-21T00:22:59;22.30;99.90
4757;DHT22;2392;52.578;13.426;2023-08-21T00:25:26;22.20;99.90
4757;DHT22;2392;52.578;13.426;2023-08-21T00:27:53;22.20;99.90
4757;DHT22;2392;52.578;13.426;2023-08-21T00:30:22;22.10;99.90
4757;DHT22;2392;52.578;13.426;2023-08-21T00:32:49;22.10;99.90
4757;DHT22;2392;52.578;13.426;2023-08-21T00:35:16;22.10;99.90
4757;DHT22;2392;52.578;13.426;2023-08-21T00:37:43;22.10;99.90
4757;DHT22;2392;52.578;13.426;2023-08-21T00:40:10;22.10;99.90
4757;DHT22;2392;52.578;13.426;2023-08-21T00:42:38;22.10;99.90
4757;DHT22;2392;52.578;13.426;2023-08-21T00:45:05;22.10;99.90
4757;DHT22;2392;52.578;13.426;2023-08-21T00:47:35;22.10;99.90
4757;DHT22;2392;52.578;13.426;2023-08-21T00:50:03;22.10;99.90
4757;DHT22;2392;52.578;13.426;2023-08-21T00:52:32;22.00;99.90
4757;DHT22;2392;52.578;13.426;2023-08-21T00:55:00;22.00;99.90
4757;DHT22;2392;52.578;13.426;2023-08-21T00:57:27;22.00;99.90
4757;DHT22;2392;52.578;13.426;2023-08-21T00:59:54;21.90;99.90
4757;DHT22;2392;52.578;13.426;2023-08-21T01:02:21;21.90;99.90
4757;DHT22;2392;52.578;13.426;2023-08-21T01:04:50;21.90;99.90
4757;DHT22;2392;52.578;13.426;2023-08-21T01:07:16;21.80;99.90
4757;DHT22;2392;52.578;13.426;2023-08-21T01:09:48;21.80;99.90
4757;DHT22;2392;52.578;13.426;2023-08-21T01:12:22;21.80;99.90
4757;DHT22;2392;52.578;13.426;2023-08-21T01:14:54;21.70;99.90
4757;DHT22;2392;52.578;13.426;2023-08-21T01:17:25;21.70;99.90
4757;DHT22;2392;52.578;13.426;2023-08-21T01:19:55;21.60;99.90
4757;DHT22;2392;52.578;13.426;2023-08-21T01:22:26;21.60;99.90
4757;DHT22;2392;52.578;13.426;2023-08-21T01:24:54;21.60;99.90
4757;DHT22;2392;52.578;13.426;2023-08-21T01:27:22;21.70;99.90
4757;DHT22;2392;52.578;13.426;2023-08-21T01:29:49;21.70;99.90
4757;DHT22;2392;52.578;13.426;2023-08-21T01:32:21;21.70;99.90
4757;DHT22;2392;52.578;13.426;2023-08-21T01:34:51;21.70;99.90
4757;DHT22;2392;52.578;13.426;2023-08-21T01:37:21;21.60;99.90
4757;DHT22;2392;52.578;13.426;2023-08-21T01:39:49;21.60;99.90
4757;DHT22;2392;52.578;13.426;2023-08-21T01:42:17;21.60;99.90
4757;DHT22;2392;52.578;13.426;2023-08-21T01:44:44;21.70;99.90
4757;DHT22;2392;52.578;13.426;2023-08-21T01:47:11;21.60;99.90
4757;DHT22;2392;52.578;13.426;2023-08-21T01:49:39;21.60;99.90
4757;DHT22;2392;52.578;13.426;2023-08-21T01:52:06;21.60;99.90
4757;DHT22;2392;52.578;13.426;2023-08-21T01:54:33;21.50;99.90
4757;DHT22;2392;52.578;13.426;2023-08-21T01:57:00;21.60;99.90
4757;DHT22;2392;52.578;13.426;2023-08-21T01:59:29;21.60;99.90
4757;DHT22;2392;52.578;13.426;2023-08-21T02:01:56;21.70;99.90
4757;DHT22;2392;52.578;13.426;2023-08-21T02:04:24;21.60;99.90
4757;DHT22;2392;52.578;13.426;2023-08-21T02:06:51;21.70;99.90
4757;DHT22;2392;52.578;13.426;2023-08-21T02:09:18;21.70;99.90
4757;DHT22;2392;52.578;13.426;2023-08-21T02:11:45;21.70;99.90
4757;DHT22;2392;52.578;13.426;2023-08-21T02:14:12;21.70;99.90
4757;DHT22;2392;52.578;13.426;2023-08-21T02:16:41;21.70;99.90
4757;DHT22;2392;52.578;13.426;2023-08-21T02:19:08;21.70;99.90
4757;DHT22;2392;52.578;13.426;2023-08-21T02:21:37;21.70;99.90
4757;DHT22;2392;52.578;13.426;2023-08-21T02:24:04;21.80;99.90
4757;DHT22;2392;52.578;13.426;2023-08-21T02:26:31;21.80;99.90
4757;DHT22;2392;52.578;13.426;2023-08-21T02:28:58;21.80;99.90
4757;DHT22;2392;52.578;13.426;2023-08-21T02:31:25;21.80;99.90
4757;DHT22;2392;52.578;13.426;2023-08-21T02:33:54;21.80;99.90
4757;DHT22;2392;52.578;13.426;2023-08-21T02:36:21;21.80;99.90
4757;DHT22;2392;52.578;13.426;2023-08-21T02:38:49;21.80;99.90
4757;DHT22;2392;52.578;13.426;2023-08-21T02:41:16;21.80;99.90
4757;DHT22;2392;52.578;13.426;2023-08-21T02:43:44;21.80;99.90
4757;DHT22;2392;52.578;13.426;2023-08-21T02:46:11;21.80;99.90
4757;DHT22;2392;52.578;13.426;2023-08-21T02:48:38;21.80;99.90
4757;DHT22;2392;52.578;13.426;2023-08-21T02:51:06;21.80;99.90
4757;DHT22;2392;52.578;13.426;2023-08-21T02:53:33;21.80;99.90
4757;DHT22;2392;52.578;13.426;2023-08-21T02:56:00;21.80;99.90
4757;DHT22;2392;52.578;13.426;2023-08-21T02:58:27;21.80;99.90
4757;DHT22;2392;52.578;13.426;2023-08-21T03:00:54;21.80;99.90
4757;DHT22;2392;52.578;13.426;2023-08-21T03:03:22;21.90;99.90
4757;DHT22;2392;52.578;13.426;2023-08-21T03:05:49;21.90;99.90
4757;DHT22;2392;52.578;13.426;2023-08-21T03:08:17;21.90;99.90
4757;DHT22;2392;52.578;13.426;2023-08-21T03:10:44;21.90;99.90
4757;DHT22;2392;52.578;13.426;2023-08-21T03:13:11;21.90;99.90
4757;DHT22;2392;52.578;13.426;2023-08-21T03:15:38;22.00;99.90
4757;DHT22;2392;52.578;13.426;2023-08-21T03:18:05;22.00;99.90
4757;DHT22;2392;52.578;13.426;2023-08-21T03:20:32;22.00;99.90
4757;DHT22;2392;52.578;13.426;2023-08-21T03:23:00;22.10;99.90
4757;DHT22;2392;52.578;13.426;2023-08-21T03:25:29;22.10;99.90
4757;DHT22;2392;52.578;13.426;2023-08-21T03:27:56;22.10;99.90
4757;DHT22;2392;52.578;13.426;2023-08-21T03:30:23;22.10;99.90
4757;DHT22;2392;52.578;13.426;2023-08-21T03:32:50;22.10;99.90
4757;DHT22;2392;52.578;13.426;2023-08-21T03:35:17;22.10;99.90
4757;DHT22;2392;52.578;13.426;2023-08-21T03:37:45;22.10;99.90
4757;DHT22;2392;52.578;13.426;2023-08-21T03:40:14;22.10;99.90
4757;DHT22;2392;52.578;13.426;2023-08-21T03:42:43;22.10;99.90
4757;DHT22;2392;52.578;13.426;2023-08-21T03:45:10;22.10;99.90
4757;DHT22;2392;52.578;13.426;2023-08-21T03:47:38;22.10;99.90
4757;DHT22;2392;52.578;13.426;2023-08-21T03:50:12;22.10;99.90
4757;DHT22;2392;52.578;13.426;2023-08-21T03:52:40;22.10;99.90
4757;DHT22;2392;52.578;13.426;2023-08-21T03:55:08;22.10;99.90
4757;DHT22;2392;52.578;13.426;2023-08-21T03:57:35;22.10;99.90
4757;DHT22;2392;52.578;13.426;2023-08-21T04:00:07;22.10;99.90
4757;DHT22;2392;52.578;13.426;2023-08-21T04:02:41;22.00;99.90
4757;DHT22;2392;52.578;13.426;2023-08-21T04:05:08;22.00;99.90
4757;DHT22;2392;52.578;13.426;2023-08-21T04:07:36;22.00;99.90
4757;DHT22;2392;52.578;13.426;2023-08-21T04:10:04;22.00;99.90
4757;DHT22;2392;52.578;13.426;2023-08-21T04:12:31;21.90;99.90
4757;DHT22;2392;52.578;13.426;2023-08-21T04:14:58;21.90;99.90
4757;DHT22;2392;52.578;13.426;2023-08-21T04:17:26;21.90;99.90
4757;DHT22;2392;52.578;13.426;2023-08-21T04:19:54;21.90;99.90
4757;DHT22;2392;52.578;13.426;2023-08-21T04:22:21;21.90;99.90
4757;DHT22;2392;52.578;13.426;2023-08-21T04:24:48;22.00;99.90
4757;DHT22;2392;52.578;13.426;2023-08-21T04:27:18;22.00;99.90
4757;DHT22;2392;52.578;13.426;2023-08-21T04:29:45;22.00;99.90
4757;DHT22;2392;52.578;13.426;2023-08-21T04:32:12;22.00;99.90
4757;DHT22;2392;52.578;13.426;2023-08-21T04:34:42;22.00;99.90
4757;DHT22;2392;52.578;13.426;2023-08-21T04:37:09;22.00;99.90
4757;DHT22;2392;52.578;13.426;2023-08-21T04:39:37;22.00;99.90
4757;DHT22;2392;52.578;13.426;2023-08-21T04:42:04;22.00;99.90
4757;DHT22;2392;52.578;13.426;2023-08-21T04:44:31;22.00;99.90
4757;DHT22;2392;52.578;13.426;2023-08-21T04:47:18;22.10;99.90
4757;DHT22;2392;52.578;13.426;2023-08-21T04:49:48;22.00;99.90
4757;DHT22;2392;52.578;13.426;2023-08-21T04:52:15;22.00;99.90
4757;DHT22;2392;52.578;13.426;2023-08-21T04:54:43;22.00;99.90
4757;DHT22;2392;52.578;13.426;2023-08-21T04:57:10;22.10;99.90
4757;DHT22;2392;52.578;13.426;2023-08-21T04:59:38;22.10;99.90
4757;DHT22;2392;52.578;13.426;2023-08-21T05:02:05;22.10;99.90
4757;DHT22;2392;52.578;13.426;2023-08-21T05:04:33;22.20;99.90
4757;DHT22;2392;52.578;13.426;2023-08-21T05:07:03;22.10;99.90
4757;DHT22;2392;52.578;13.426;2023-08-21T05:09:30;22.10;99.90
4757;DHT22;2392;52.578;13.426;2023-08-21T05:11:58;22.10;99.90
4757;DHT22;2392;52.578;13.426;2023-08-21T05:14:25;22.00;99.90
4757;DHT22;2392;52.578;13.426;2023-08-21T05:16:52;22.00;99.90
4757;DHT22;2392;52.578;13.426;2023-08-21T05:19:20;22.00;99.90
4757;DHT22;2392;52.578;13.426;2023-08-21T05:21:50;22.00;99.90
4757;DHT22;2392;52.578;13.426;2023-08-21T05:24:18;22.00;99.90
4757;DHT22;2392;52.578;13.426;2023-08-21T05:26:52;22.00;99.90
4757;DHT22;2392;52.578;13.426;2023-08-21T05:29:19;22.00;99.90
4757;DHT22;2392;52.578;13.426;2023-08-21T05:31:46;22.10;99.90
4757;DHT22;2392;52.578;13.426;2023-08-21T05:34:13;22.10;99.90
4757;DHT22;2392;52.578;13.426;2023-08-21T05:36:40;22.20;99.90
4757;DHT22;2392;52.578;13.426;2023-08-21T05:39:08;22.20;99.90
4757;DHT22;2392;52.578;13.426;2023-08-21T05:41:37;22.20;99.90
4757;DHT22;2392;52.578;13.426;2023-08-21T05:44:04;22.20;99.90
4757;DHT22;2392;52.578;13.426;2023-08-21T05:46:32;22.30;99.90
4757;DHT22;2392;52.578;13.426;2023-08-21T05:48:59;22.30;99.90
4757;DHT22;2392;52.578;13.426;2023-08-21T05:51:26;22.40;99.90
4757;DHT22;2392;52.578;13.426;2023-08-21T05:53:53;22.40;99.90
4757;DHT22;2392;52.578;13.426;2023-08-21T05:56:20;22.50;99.90
4757;DHT22;2392;52.578;13.426;2023-08-21T05:58:49;22.50;99.90
4757;DHT22;2392;52.578;13.426;2023-08-21T06:01:16;22.60;99.90
4757;DHT22;2392;52.578;13.426;2023-08-21T06:03:43;22.60;99.90
4757;DHT22;2392;52.578;13.426;2023-08-21T06:06:30;22.70;99.90
4757;DHT22;2392;52.578;13.426;2023-08-21T06:08:57;22.70;99.90
4757;DHT22;2392;52.578;13.426;2023-08-21T06:11:24;22.80;99.90
4757;DHT22;2392;52.578;13.426;2023-08-21T06:13:53;22.80;99.90
4757;DHT22;2392;52.578;13.426;2023-08-21T06:16:20;22.80;99.90
4757;DHT22;2392;52.578;13.426;2023-08-21T06:18:48;22.90;99.90
4757;DHT22;2392;52.578;13.426;2023-08-21T06:21:15;23.00;99.90
4757;DHT22;2392;52.578;13.426;2023-08-21T06:23:42;23.00;99.90
4757;DHT22;2392;52.578;13.426;2023-08-21T06:26:09;23.10;99.90
4757;DHT22;2392;52.578;13.426;2023-08-21T06:28:36;23.20;99.90
4757;DHT22;2392;52.578;13.426;2023-08-21T06:31:04;23.20;99.90
4757;DHT22;2392;52.578;13.426;2023-08-21T06:33:33;23.20;99.90
4757;DHT22;2392;52.578;13.426;2023-08-21T06:36:01;23.30;99.90
4757;DHT22;2392;52.578;13.426;2023-08-21T06:38:28;23.30;99.90
4757;DHT22;2392;52.578;13.426;2023-08-21T06:40:55;23.30;99.90
4757;DHT22;2392;52.578;13.426;2023-08-21T06:43:22;23.20;99.90
4757;DHT22;2392;52.578;13.426;2023-08-21T06:45:50;23.20;99.90
4757;DHT22;2392;52.578;13.426;2023-08-21T06:48:19;23.20;99.90
4757;DHT22;2392;52.578;13.426;2023-08-21T06:50:46;23.20;99.90
4757;DHT22;2392;52.578;13.426;2023-08-21T06:53:13;23.20;99.90
4757;DHT22;2392;52.578;13.426;2023-08-21T06:55:40;23.20;99.90
4757;DHT22;2392;52.578;13.426;2023-08-21T06:58:07;23.20;99.90
4757;DHT22;2392;52.578;13.426;2023-08-21T07:00:34;23.40;99.90
4757;DHT22;2392;52.578;13.426;2023-08-21T07:03:01;23.40;99.90
4757;DHT22;2392;52.578;13.426;2023-08-21T07:05:34;23.50;99.90
4757;DHT22;2392;52.578;13.426;2023-08-21T07:08:01;23.50;99.90
4757;DHT22;2392;52.578;13.426;2023-08-21T07:10:28;23.50;99.90
4757;DHT22;2392;52.578;13.426;2023-08-21T07:12:55;23.50;99.90
4757;DHT22;2392;52.578;13.426;2023-08-21T07:15:22;23.60;99.90
4757;DHT22;2392;52.578;13.426;2023-08-21T07:17:49;23.70;99.90
4757;DHT22;2392;52.578;13.426;2023-08-21T07:20:16;23.80;99.90
4757;DHT22;2392;52.578;13.426;2023-08-21T07:22:45;23.70;99.90
4757;DHT22;2392;52.578;13.426;2023-08-21T07:25:12;23.80;99.90
4757;DHT22;2392;52.578;13.426;2023-08-21T07:27:38;23.90;99.90
4757;DHT22;2392;52.578;13.426;2023-08-21T07:30:07;23.90;99.90
4757;DHT22;2392;52.578;13.426;2023-08-21T07:32:34;23.90;99.90
4757;DHT22;2392;52.578;13.426;2023-08-21T07:35:01;23.90;99.90
4757;DHT22;2392;52.578;13.426;2023-08-21T07:37:28;23.90;99.90
4757;DHT22;2392;52.578;13.426;2023-08-21T07:39:56;23.90;99.90
4757;DHT22;2392;52.578;13.426;2023-08-21T07:42:23;24.00;99.90
4757;DHT22;2392;52.578;13.426;2023-08-21T07:44:50;24.00;99.90
4757;DHT22;2392;52.578;13.426;2023-08-21T07:47:17;24.00;99.90
4757;DHT22;2392;52.578;13.426;2023-08-21T07:49:44;24.10;99.90
4757;DHT22;2392;52.578;13.426;2023-08-21T07:52:11;24.10;99.90
4757;DHT22;2392;52.578;13.426;2023-08-21T07:54:38;24.20;99.90
4757;DHT22;2392;52.578;13.426;2023-08-21T07:57:06;24.30;99.90
4757;DHT22;2392;52.578;13.426;2023-08-21T07:59:33;24.30;99.90
4757;DHT22;2392;52.578;13.426;2023-08-21T08:02:01;24.40;99.90
4757;DHT22;2392;52.578;13.426;2023-08-21T08:04:29;24.50;99.90
4757;DHT22;2392;52.578;13.426;2023-08-21T08:06:56;24.60;99.90
4757;DHT22;2392;52.578;13.426;2023-08-21T08:09:23;24.70;99.90
4757;DHT22;2392;52.578;13.426;2023-08-21T08:11:50;24.80;99.90
4757;DHT22;2392;52.578;13.426;2023-08-21T08:14:19;24.80;99.90
4757;DHT22;2392;52.578;13.426;2023-08-21T08:16:46;24.80;99.90
4757;DHT22;2392;52.578;13.426;2023-08-21T08:19:12;24.70;99.90
4757;DHT22;2392;52.578;13.426;2023-08-21T08:21:39;24.70;99.90
4757;DHT22;2392;52.578;13.426;2023-08-21T08:24:06;24.70;99.90
4757;DHT22;2392;52.578;13.426;2023-08-21T08:26:33;24.70;99.90
4757;DHT22;2392;52.578;13.426;2023-08-21T08:29:00;24.80;99.90
4757;DHT22;2392;52.578;13.426;2023-08-21T08:31:29;24.90;99.90
4757;DHT22;2392;52.578;13.426;2023-08-21T08:33:56;25.00;99.90
4757;DHT22;2392;52.578;13.426;2023-08-21T08:36:23;25.10;99.90
4757;DHT22;2392;52.578;13.426;2023-08-21T08:38:50;25.10;99.90
4757;DHT22;2392;52.578;13.426;2023-08-21T08:41:25;25.10;99.90
4757;DHT22;2392;52.578;13.426;2023-08-21T08:43:57;25.10;99.90
4757;DHT22;2392;52.578;13.426;2023-08-21T08:46:25;25.10;99.90
4757;DHT22;2392;52.578;13.426;2023-08-21T08:48:54;25.10;99.90
4757;DHT22;2392;52.578;13.426;2023-08-21T08:51:21;25.30;99.90
4757;DHT22;2392;52.578;13.426;2023-08-21T08:53:49;25.40;99.90
4757;DHT22;2392;52.578;13.426;2023-08-21T08:56:16;25.50;99.90
4757;DHT22;2392;52.578;13.426;2023-08-21T08:58:43;25.50;99.90
4757;DHT22;2392;52.578;13.426;2023-08-21T09:01:10;25.60;99.90
4757;DHT22;2392;52.578;13.426;2023-08-21T09:03:37;25.80;99.90
4757;DHT22;2392;52.578;13.426;2023-08-21T09:06:06;25.90;99.90
4757;DHT22;2392;52.578;13.426;2023-08-21T09:08:33;26.00;99.90
4757;DHT22;2392;52.578;13.426;2023-08-21T09:11:02;26.20;99.90
4757;DHT22;2392;52.578;13.426;2023-08-21T09:13:31;26.30;99.90
4757;DHT22;2392;52.578;13.426;2023-08-21T09:15:58;26.30;99.90
4757;DHT22;2392;52.578;13.426;2023-08-21T09:18:26;26.40;99.90
4757;DHT22;2392;52.578;13.426;2023-08-21T09:20:53;26.50;99.90
4757;DHT22;2392;52.578;13.426;2023-08-21T09:23:21;26.50;99.90
4757;DHT22;2392;52.578;13.426;2023-08-21T09:25:48;26.50;99.90
4757;DHT22;2392;52.578;13.426;2023-08-21T09:28:19;26.60;99.90
4757;DHT22;2392;52.578;13.426;2023-08-21T09:30:47;26.60;99.90
4757;DHT22;2392;52.578;13.426;2023-08-21T09:33:17;26.60;99.90
4757;DHT22;2392;52.578;13.426;2023-08-21T09:35:45;26.70;99.90
4757;DHT22;2392;52.578;13.426;2023-08-21T09:38:12;26.80;99.90
4757;DHT22;2392;52.578;13.426;2023-08-21T09:40:42;26.80;99.90
4757;DHT22;2392;52.578;13.426;2023-08-21T09:43:10;26.90;99.90
4757;DHT22;2392;52.578;13.426;2023-08-21T09:45:37;27.00;99.90
4757;DHT22;2392;52.578;13.426;2023-08-21T09:48:05;27.20;99.90
4757;DHT22;2392;52.578;13.426;2023-08-21T09:50:33;27.20;99.90
4757;DHT22;2392;52.578;13.426;2023-08-21T09:53:02;27.30;99.90
4757;DHT22;2392;52.578;13.426;2023-08-21T09:55:31;27.30;99.90
4757;DHT22;2392;52.578;13.426;2023-08-21T09:58:00;27.30;99.90
4757;DHT22;2392;52.578;13.426;2023-08-21T10:00:32;27.30;99.90
4757;DHT22;2392;52.578;13.426;2023-08-21T10:03:02;27.30;99.90
4757;DHT22;2392;52.578;13.426;2023-08-21T10:05:29;27.20;99.90
4757;DHT22;2392;52.578;13.426;2023-08-21T10:08:00;27.40;99.90
4757;DHT22;2392;52.578;13.426;2023-08-21T10:10:29;27.70;99.90
4757;DHT22;2392;52.578;13.426;2023-08-21T10:12:57;28.30;99.90
4757;DHT22;2392;52.578;13.426;2023-08-21T10:15:27;29.20;99.90
4757;DHT22;2392;52.578;13.426;2023-08-21T10:17:54;30.20;99.90
4757;DHT22;2392;52.578;13.426;2023-08-21T10:20:23;30.90;99.90
4757;DHT22;2392;52.578;13.426;2023-08-21T10:23:00;31.10;99.50
4757;DHT22;2392;52.578;13.426;2023-08-21T10:25:28;31.20;99.00
4757;DHT22;2392;52.578;13.426;2023-08-21T10:27:56;30.90;99.40
4757;DHT22;2392;52.578;13.426;2023-08-21T10:30:27;30.50;97.90
4757;DHT22;2392;52.578;13.426;2023-08-21T10:32:56;30.00;98.70
4757;DHT22;2392;52.578;13.426;2023-08-21T10:35:24;30.20;99.00
4757;DHT22;2392;52.578;13.426;2023-08-21T10:38:08;30.20;98.40
4757;DHT22;2392;52.578;13.426;2023-08-21T10:40:36;30.10;97.10
4757;DHT22;2392;52.578;13.426;2023-08-21T10:43:03;29.90;97.30
4757;DHT22;2392;52.578;13.426;2023-08-21T10:45:32;29.60;97.10
4757;DHT22;2392;52.578;13.426;2023-08-21T10:47:59;29.50;97.00
4757;DHT22;2392;52.578;13.426;2023-08-21T10:50:27;29.60;97.30
4757;DHT22;2392;52.578;13.426;2023-08-21T10:52:54;30.60;97.70
4757;DHT22;2392;52.578;13.426;2023-08-21T10:55:21;31.80;96.30
4757;DHT22;2392;52.578;13.426;2023-08-21T10:57:48;33.10;94.30
4757;DHT22;2392;52.578;13.426;2023-08-21T11:00:17;34.00;93.00
4757;DHT22;2392;52.578;13.426;2023-08-21T11:02:47;34.10;92.10
4757;DHT22;2392;52.578;13.426;2023-08-21T11:05:15;33.50;92.00
4757;DHT22;2392;52.578;13.426;2023-08-21T11:07:43;32.70;92.90
4757;DHT22;2392;52.578;13.426;2023-08-21T11:10:12;32.20;92.10
4757;DHT22;2392;52.578;13.426;2023-08-21T11:12:49;31.30;92.70
4757;DHT22;2392;52.578;13.426;2023-08-21T11:15:16;30.20;94.40
4757;DHT22;2392;52.578;13.426;2023-08-21T11:17:56;29.60;94.80
4757;DHT22;2392;52.578;13.426;2023-08-21T11:20:26;29.20;94.80
4757;DHT22;2392;52.578;13.426;2023-08-21T11:22:56;28.90;95.20
4757;DHT22;2392;52.578;13.426;2023-08-21T11:25:24;28.80;96.10
4757;DHT22;2392;52.578;13.426;2023-08-21T11:27:52;28.70;96.50
4757;DHT22;2392;52.578;13.426;2023-08-21T11:30:22;28.90;96.40
4757;DHT22;2392;52.578;13.426;2023-08-21T11:32:49;29.00;96.00
4757;DHT22;2392;52.578;13.426;2023-08-21T11:35:18;29.20;95.70
4757;DHT22;2392;52.578;13.426;2023-08-21T11:37:45;29.40;95.80
4757;DHT22;2392;52.578;13.426;2023-08-21T11:40:13;29.40;95.80
4757;DHT22;2392;52.578;13.426;2023-08-21T11:42:40;29.80;95.60
4757;DHT22;2392;52.578;13.426;2023-08-21T11:45:10;30.00;95.50
4757;DHT22;2392;52.578;13.426;2023-08-21T11:47:39;30.00;94.70
4757;DHT22;2392;52.578;13.426;2023-08-21T11:50:07;29.80;94.70
4757;DHT22;2392;52.578;13.426;2023-08-21T11:52:37;29.70;94.80
4757;DHT22;2392;52.578;13.426;2023-08-21T11:55:08;29.50;94.20
4757;DHT22;2392;52.578;13.426;2023-08-21T11:57:46;29.30;94.60
4757;DHT22;2392;52.578;13.426;2023-08-21T12:00:14;29.10;94.70
4757;DHT22;2392;52.578;13.426;2023-08-21T12:02:53;28.90;95.10
4757;DHT22;2392;52.578;13.426;2023-08-21T12:05:22;28.70;95.70
4757;DHT22;2392;52.578;13.426;2023-08-21T12:07:50;28.60;95.90
4757;DHT22;2392;52.578;13.426;2023-08-21T12:10:23;28.50;95.40
4757;DHT22;2392;52.578;13.426;2023-08-21T12:12:50;28.50;96.00
4757;DHT22;2392;52.578;13.426;2023-08-21T12:15:17;28.50;95.80
4757;DHT22;2392;52.578;13.426;2023-08-21T12:17:44;28.50;96.20
4757;DHT22;2392;52.578;13.426;2023-08-21T12:20:11;28.50;96.40
4757;DHT22;2392;52.578;13.426;2023-08-21T12:22:40;28.40;96.10
4757;DHT22;2392;52.578;13.426;2023-08-21T12:25:09;28.40;96.10
4757;DHT22;2392;52.578;13.426;2023-08-21T12:27:36;28.30;95.90
4757;DHT22;2392;52.578;13.426;2023-08-21T12:30:05;28.40;96.20
4757;DHT22;2392;52.578;13.426;2023-08-21T12:32:32;28.40;96.30
4757;DHT22;2392;52.578;13.426;2023-08-21T12:34:59;28.40;96.40
4757;DHT22;2392;52.578;13.426;2023-08-21T12:37:25;28.40;95.90
4757;DHT22;2392;52.578;13.426;2023-08-21T12:39:53;28.40;96.10
4757;DHT22;2392;52.578;13.426;2023-08-21T12:42:22;28.40;96.40
4757;DHT22;2392;52.578;13.426;2023-08-21T12:44:49;28.40;97.00
4757;DHT22;2392;52.578;13.426;2023-08-21T12:47:16;28.50;97.40
4757;DHT22;2392;52.578;13.426;2023-08-21T12:49:43;28.60;96.90
4757;DHT22;2392;52.578;13.426;2023-08-21T12:52:10;28.70;96.70
4757;DHT22;2392;52.578;13.426;2023-08-21T12:54:39;28.60;96.90
4757;DHT22;2392;52.578;13.426;2023-08-21T12:57:06;28.70;96.70
4757;DHT22;2392;52.578;13.426;2023-08-21T12:59:37;28.70;97.20
4757;DHT22;2392;52.578;13.426;2023-08-21T13:02:04;28.70;97.40
4757;DHT22;2392;52.578;13.426;2023-08-21T13:04:31;28.80;96.90
4757;DHT22;2392;52.578;13.426;2023-08-21T13:06:58;28.90;95.90
4757;DHT22;2392;52.578;13.426;2023-08-21T13:09:26;29.00;95.50
4757;DHT22;2392;52.578;13.426;2023-08-21T13:11:54;28.90;95.30
4757;DHT22;2392;52.578;13.426;2023-08-21T13:14:21;28.90;94.50
4757;DHT22;2392;52.578;13.426;2023-08-21T13:16:49;28.90;94.20
4757;DHT22;2392;52.578;13.426;2023-08-21T13:19:16;28.80;93.80
4757;DHT22;2392;52.578;13.426;2023-08-21T13:21:43;28.80;94.00
4757;DHT22;2392;52.578;13.426;2023-08-21T13:24:11;28.80;93.90
4757;DHT22;2392;52.578;13.426;2023-08-21T13:26:38;28.70;93.80
4757;DHT22;2392;52.578;13.426;2023-08-21T13:29:05;28.70;93.80
4757;DHT22;2392;52.578;13.426;2023-08-21T13:31:34;28.50;94.00
4757;DHT22;2392;52.578;13.426;2023-08-21T13:34:02;28.50;94.40
4757;DHT22;2392;52.578;13.426;2023-08-21T13:36:30;28.40;93.90
4757;DHT22;2392;52.578;13.426;2023-08-21T13:38:57;28.40;94.10
4757;DHT22;2392;52.578;13.426;2023-08-21T13:41:24;28.30;94.30
4757;DHT22;2392;52.578;13.426;2023-08-21T13:43:51;28.30;94.10
4757;DHT22;2392;52.578;13.426;2023-08-21T13:46:19;28.30;94.00
4757;DHT22;2392;52.578;13.426;2023-08-21T13:48:46;28.30;94.20
4757;DHT22;2392;52.578;13.426;2023-08-21T13:51:15;28.30;94.20
4757;DHT22;2392;52.578;13.426;2023-08-21T13:53:42;28.30;94.20
4757;DHT22;2392;52.578;13.426;2023-08-21T13:56:09;28.30;94.40
4757;DHT22;2392;52.578;13.426;2023-08-21T13:58:36;28.40;94.60
4757;DHT22;2392;52.578;13.426;2023-08-21T14:01:03;28.50;94.10
4757;DHT22;2392;52.578;13.426;2023-08-21T14:03:32;28.50;94.20
4757;DHT22;2392;52.578;13.426;2023-08-21T14:05:59;28.40;94.20
4757;DHT22;2392;52.578;13.426;2023-08-21T14:08:27;28.40;94.50
4757;DHT22;2392;52.578;13.426;2023-08-21T14:10:55;28.30;94.20
4757;DHT22;2392;52.578;13.426;2023-08-21T14:13:21;28.30;94.20
4757;DHT22;2392;52.578;13.426;2023-08-21T14:15:48;28.20;93.80
4757;DHT22;2392;52.578;13.426;2023-08-21T14:18:15;28.10;94.20
4757;DHT22;2392;52.578;13.426;2023-08-21T14:20:42;28.00;94.10
4757;DHT22;2392;52.578;13.426;2023-08-21T14:23:09;27.90;94.10
4757;DHT22;2392;52.578;13.426;2023-08-21T14:25:38;27.80;93.80
4757;DHT22;2392;52.578;13.426;2023-08-21T14:28:05;27.80;93.80
4757;DHT22;2392;52.578;13.426;2023-08-21T14:30:32;27.70;93.60
4757;DHT22;2392;52.578;13.426;2023-08-21T14:32:59;27.70;93.60
4757;DHT22;2392;52.578;13.426;2023-08-21T14:35:26;27.70;93.00
4757;DHT22;2392;52.578;13.426;2023-08-21T14:37:54;27.60;92.10
4757;DHT22;2392;52.578;13.426;2023-08-21T14:40:21;27.60;92.00
4757;DHT22;2392;52.578;13.426;2023-08-21T14:42:49;27.60;91.50
4757;DHT22;2392;52.578;13.426;2023-08-21T14:45:16;27.60;91.60
4757;DHT22;2392;52.578;13.426;2023-08-21T14:47:43;27.70;91.40
4757;DHT22;2392;52.578;13.426;2023-08-21T14:50:10;27.80;91.00
4757;DHT22;2392;52.578;13.426;2023-08-21T14:52:37;27.90;91.00
4757;DHT22;2392;52.578;13.426;2023-08-21T14:55:05;28.00;91.30
4757;DHT22;2392;52.578;13.426;2023-08-21T14:57:32;28.10;91.20
4757;DHT22;2392;52.578;13.426;2023-08-21T15:00:00;28.10;91.20
4757;DHT22;2392;52.578;13.426;2023-08-21T15:02:29;28.20;91.10
4757;DHT22;2392;52.578;13.426;2023-08-21T15:04:56;28.10;90.80
4757;DHT22;2392;52.578;13.426;2023-08-21T15:07:23;28.20;91.10
4757;DHT22;2392;52.578;13.426;2023-08-21T15:09:50;28.10;91.30
4757;DHT22;2392;52.578;13.426;2023-08-21T15:12:17;28.00;91.30
4757;DHT22;2392;52.578;13.426;2023-08-21T15:14:45;27.90;91.50
4757;DHT22;2392;52.578;13.426;2023-08-21T15:17:13;27.70;91.40
4757;DHT22;2392;52.578;13.426;2023-08-21T15:19:40;27.60;91.50
4757;DHT22;2392;52.578;13.426;2023-08-21T15:22:07;27.50;91.60
4757;DHT22;2392;52.578;13.426;2023-08-21T15:24:34;27.40;91.70
4757;DHT22;2392;52.578;13.426;2023-08-21T15:27:01;27.40;91.50
4757;DHT22;2392;52.578;13.426;2023-08-21T15:29:29;27.40;91.70
4757;DHT22;2392;52.578;13.426;2023-08-21T15:31:56;27.40;92.00
4757;DHT22;2392;52.578;13.426;2023-08-21T15:34:24;27.50;92.10
4757;DHT22;2392;52.578;13.426;2023-08-21T15:36:51;27.70;92.60
4757;DHT22;2392;52.578;13.426;2023-08-21T15:39:18;27.80;92.20
4757;DHT22;2392;52.578;13.426;2023-08-21T15:41:45;27.80;92.00
4757;DHT22;2392;52.578;13.426;2023-08-21T15:44:12;27.70;92.10
4757;DHT22;2392;52.578;13.426;2023-08-21T15:46:39;27.70;92.30
4757;DHT22;2392;52.578;13.426;2023-08-21T15:49:09;27.50;92.40